sensor_id;sensor_type;location;lat;lon;timestamp;pressure;altitude;pressure_sealevel;temperature;humidity
48041;BME280;33815;48.386;11.738;2023-03-17T00:01:13;96511.19;;;-1.01;100.00
48041;BME280;33815;48.386;11.738;2023-03-17T00:03:41;96506.38;;;-1.07;100.00
48041;BME280;33815;48.386;11.738;2023-03-17T00:06:15;96507.13;;;-1.05;100.00
48041;BME280;33815;48.386;11.738;2023-03-17T00:08:42;96499.50;;;-1.07;100.00
48041;BME280;33815;48.386;11.738;2023-03-17T00:11:15;96507.25;;;-1.08;100.00
48041;BME280;33815;48.386;11.738;2023-03-17T00:13:42;96501.06;;;-1.20;100.00
48041;BME280;33815;48.386;11.738;2023-03-17T00:16:18;96502.88;;;-1.22;100.00
48041;BME280;33815;48.386;11.738;2023-03-17T00:18:45;96501.00;;;-1.18;100.00
48041;BME280;33815;48.386;11.738;2023-03-17T00:21:16;96510.69;;;-1.25;100.00
48041;BME280;33815;48.386;11.738;2023-03-17T00:23:47;96507.78;;;-1.35;100.00
48041;BME280;33815;48.386;11.738;2023-03-17T00:26:13;96504.75;;;-1.42;100.00
48041;BME280;33815;48.386;11.738;2023-03-17T00:28:39;96495.13;;;-1.54;100.00
48041;BME280;33815;48.386;11.738;2023-03-17T00:31:13;96496.63;;;-1.50;100.00
48041;BME280;33815;48.386;11.738;2023-03-17T00:33:39;96485.72;;;-1.53;100.00
48041;BME280;33815;48.386;11.738;2023-03-17T00:36:10;96489.25;;;-1.56;100.00
48041;BME280;33815;48.386;11.738;2023-03-17T00:38:37;96474.91;;;-1.59;100.00
48041;BME280;33815;48.386;11.738;2023-03-17T00:41:03;96472.84;;;-1.68;100.00
48041;BME280;33815;48.386;11.738;2023-03-17T00:43:29;96467.72;;;-1.68;100.00
48041;BME280;33815;48.386;11.738;2023-03-17T00:45:54;96476.41;;;-1.55;100.00
48041;BME280;33815;48.386;11.738;2023-03-17T00:48:20;96482.72;;;-1.62;100.00
48041;BME280;33815;48.386;11.738;2023-03-17T00:50:47;96472.84;;;-1.68;100.00
48041;BME280;33815;48.386;11.738;2023-03-17T00:53:15;96475.50;;;-1.53;100.00
48041;BME280;33815;48.386;11.738;2023-03-17T00:55:41;96477.91;;;-1.50;100.00
48041;BME280;33815;48.386;11.738;2023-03-17T00:58:18;96468.97;;;-1.59;100.00
48041;BME280;33815;48.386;11.738;2023-03-17T01:00:47;96441.31;;;-1.68;100.00
48041;BME280;33815;48.386;11.738;2023-03-17T01:03:12;96447.44;;;-1.71;100.00
48041;BME280;33815;48.386;11.738;2023-03-17T01:05:39;96459.28;;;-1.70;100.00
48041;BME280;33815;48.386;11.738;2023-03-17T01:08:04;96446.03;;;-1.77;100.00
48041;BME280;33815;48.386;11.738;2023-03-17T01:10:30;96447.22;;;-1.84;100.00
48041;BME280;33815;48.386;11.738;2023-03-17T01:12:57;96448.72;;;-1.80;100.00
48041;BME280;33815;48.386;11.738;2023-03-17T01:15:24;96450.78;;;-1.86;100.00
48041;BME280;33815;48.386;11.738;2023-03-17T01:17:50;96437.63;;;-1.96;100.00
48041;BME280;33815;48.386;11.738;2023-03-17T01:20:22;96439.72;;;-2.04;100.00
48041;BME280;33815;48.386;11.738;2023-03-17T01:22:48;96441.31;;;-2.02;100.00
48041;BME280;33815;48.386;11.738;2023-03-17T01:25:14;96442.38;;;-2.06;100.00
48041;BME280;33815;48.386;11.738;2023-03-17T01:27:40;96410.13;;;-2.26;100.00
48041;BME280;33815;48.386;11.738;2023-03-17T01:30:07;96431.78;;;-2.16;100.00
48041;BME280;33815;48.386;11.738;2023-03-17T01:32:34;96435.16;;;-2.15;100.00
48041;BME280;33815;48.386;11.738;2023-03-17T01:34:59;96430.19;;;-2.18;100.00
48041;BME280;33815;48.386;11.738;2023-03-17T01:37:24;96409.31;;;-2.27;100.00
48041;BME280;33815;48.386;11.738;2023-03-17T01:39:51;96404.38;;;-2.30;100.00
48041;BME280;33815;48.386;11.738;2023-03-17T01:42:16;96413.28;;;-2.21;100.00
48041;BME280;33815;48.386;11.738;2023-03-17T01:47:29;96405.78;;;-2.24;100.00
48041;BME280;33815;48.386;11.738;2023-03-17T01:49:58;96406.78;;;-2.27;100.00
48041;BME280;33815;48.386;11.738;2023-03-17T01:52:26;96396.88;;;-2.33;100.00
48041;BME280;33815;48.386;11.738;2023-03-17T01:54:59;96395.94;;;-2.32;100.00
48041;BME280;33815;48.386;11.738;2023-03-17T01:57:30;96395.88;;;-2.30;100.00
48041;BME280;33815;48.386;11.738;2023-03-17T02:00:03;96388.44;;;-2.17;100.00
48041;BME280;33815;48.386;11.738;2023-03-17T02:02:38;96388.50;;;-2.19;100.00
48041;BME280;33815;48.386;11.738;2023-03-17T02:05:06;96387.94;;;-2.24;100.00
48041;BME280;33815;48.386;11.738;2023-03-17T02:07:32;96393.84;;;-2.24;100.00
48041;BME280;33815;48.386;11.738;2023-03-17T02:09:58;96396.63;;;-2.28;100.00
48041;BME280;33815;48.386;11.738;2023-03-17T02:12:26;96396.94;;;-2.17;100.00
48041;BME280;33815;48.386;11.738;2023-03-17T02:14:53;96388.81;;;-2.25;100.00
48041;BME280;33815;48.386;11.738;2023-03-17T02:17:21;96384.22;;;-2.36;100.00
48041;BME280;33815;48.386;11.738;2023-03-17T02:19:47;96381.84;;;-2.39;100.00
48041;BME280;33815;48.386;11.738;2023-03-17T02:22:14;96382.00;;;-2.42;100.00
48041;BME280;33815;48.386;11.738;2023-03-17T02:24:43;96367.28;;;-2.54;100.00
48041;BME280;33815;48.386;11.738;2023-03-17T02:27:13;96374.03;;;-2.53;100.00
48041;BME280;33815;48.386;11.738;2023-03-17T02:29:41;96366.38;;;-2.53;100.00
48041;BME280;33815;48.386;11.738;2023-03-17T02:32:10;96352.56;;;-2.67;100.00
48041;BME280;33815;48.386;11.738;2023-03-17T02:34:36;96353.59;;;-2.71;100.00
48041;BME280;33815;48.386;11.738;2023-03-17T02:37:02;96371.03;;;-2.62;100.00
48041;BME280;33815;48.386;11.738;2023-03-17T02:39:27;96371.19;;;-2.65;100.00
48041;BME280;33815;48.386;11.738;2023-03-17T02:41:52;96369.44;;;-2.64;100.00
48041;BME280;33815;48.386;11.738;2023-03-17T02:44:18;96361.25;;;-2.71;100.00
48041;BME280;33815;48.386;11.738;2023-03-17T02:46:43;96358.88;;;-2.74;100.00
48041;BME280;33815;48.386;11.738;2023-03-17T02:49:09;96370.28;;;-2.64;100.00
48041;BME280;33815;48.386;11.738;2023-03-17T02:51:35;96350.09;;;-2.68;100.00
48041;BME280;33815;48.386;11.738;2023-03-17T02:54:01;96359.41;;;-2.67;100.00
48041;BME280;33815;48.386;11.738;2023-03-17T02:56:26;96353.59;;;-2.71;100.00
48041;BME280;33815;48.386;11.738;2023-03-17T02:58:52;96345.56;;;-2.81;100.00
48041;BME280;33815;48.386;11.738;2023-03-17T03:01:17;96346.88;;;-2.72;100.00
48041;BME280;33815;48.386;11.738;2023-03-17T03:03:43;96356.09;;;-2.69;100.00
48041;BME280;33815;48.386;11.738;2023-03-17T03:06:08;96353.53;;;-2.69;100.00
48041;BME280;33815;48.386;11.738;2023-03-17T03:08:34;96336.78;;;-2.75;100.00
48041;BME280;33815;48.386;11.738;2023-03-17T03:10:59;96333.72;;;-2.64;100.00
48041;BME280;33815;48.386;11.738;2023-03-17T03:13:26;96340.41;;;-2.62;100.00
48041;BME280;33815;48.386;11.738;2023-03-17T03:15:52;96334.88;;;-2.52;100.00
48041;BME280;33815;48.386;11.738;2023-03-17T03:18:17;96328.34;;;-2.58;100.00
48041;BME280;33815;48.386;11.738;2023-03-17T03:20:42;96342.56;;;-2.54;100.00
48041;BME280;33815;48.386;11.738;2023-03-17T03:23:08;96335.00;;;-2.55;100.00
48041;BME280;33815;48.386;11.738;2023-03-17T03:25:35;96339.38;;;-2.58;100.00
48041;BME280;33815;48.386;11.738;2023-03-17T03:28:02;96338.41;;;-2.55;100.00
48041;BME280;33815;48.386;11.738;2023-03-17T03:30:27;96345.13;;;-2.54;100.00
48041;BME280;33815;48.386;11.738;2023-03-17T03:32:52;96335.38;;;-2.63;100.00
48041;BME280;33815;48.386;11.738;2023-03-17T03:35:17;96336.81;;;-2.58;100.00
48041;BME280;33815;48.386;11.738;2023-03-17T03:37:43;96351.81;;;-2.51;100.00
48041;BME280;33815;48.386;11.738;2023-03-17T03:40:08;96350.84;;;-2.49;100.00
48041;BME280;33815;48.386;11.738;2023-03-17T03:42:34;96330.75;;;-2.55;100.00
48041;BME280;33815;48.386;11.738;2023-03-17T03:44:59;96349.72;;;-2.43;100.00
48041;BME280;33815;48.386;11.738;2023-03-17T03:47:24;96348.59;;;-2.37;100.00
48041;BME280;33815;48.386;11.738;2023-03-17T03:49:50;96349.91;;;-2.30;100.00
48041;BME280;33815;48.386;11.738;2023-03-17T03:52:15;96358.25;;;-2.27;100.00
48041;BME280;33815;48.386;11.738;2023-03-17T03:54:40;96352.19;;;-2.24;100.00
48041;BME280;33815;48.386;11.738;2023-03-17T03:57:06;96357.88;;;-2.19;100.00
48041;BME280;33815;48.386;11.738;2023-03-17T03:59:31;96352.63;;;-2.16;100.00
48041;BME280;33815;48.386;11.738;2023-03-17T04:01:56;96336.72;;;-2.05;100.00
48041;BME280;33815;48.386;11.738;2023-03-17T04:04:22;96334.94;;;-2.03;100.00
48041;BME280;33815;48.386;11.738;2023-03-17T04:06:47;96336.59;;;-2.02;100.00
48041;BME280;33815;48.386;11.738;2023-03-17T04:09:12;96339.16;;;-2.02;100.00
48041;BME280;33815;48.386;11.738;2023-03-17T04:11:38;96332.41;;;-2.03;100.00
48041;BME280;33815;48.386;11.738;2023-03-17T04:14:03;96315.03;;;-1.80;100.00
48041;BME280;33815;48.386;11.738;2023-03-17T04:16:30;96322.47;;;-1.76;100.00
48041;BME280;33815;48.386;11.738;2023-03-17T04:18:56;96332.47;;;-1.55;100.00
48041;BME280;33815;48.386;11.738;2023-03-17T04:21:21;96327.41;;;-1.73;100.00
48041;BME280;33815;48.386;11.738;2023-03-17T04:23:46;96335.81;;;-1.70;100.00
48041;BME280;33815;48.386;11.738;2023-03-17T04:26:12;96335.19;;;-1.58;100.00
48041;BME280;33815;48.386;11.738;2023-03-17T04:28:37;96325.59;;;-1.70;100.00
48041;BME280;33815;48.386;11.738;2023-03-17T04:31:03;96320.56;;;-1.72;100.00
48041;BME280;33815;48.386;11.738;2023-03-17T04:33:28;96318.19;;;-1.75;100.00
48041;BME280;33815;48.386;11.738;2023-03-17T04:35:53;96312.41;;;-1.95;100.00
48041;BME280;33815;48.386;11.738;2023-03-17T04:38:19;96336.88;;;-1.75;100.00
48041;BME280;33815;48.386;11.738;2023-03-17T04:40:44;96340.34;;;-1.76;100.00
48041;BME280;33815;48.386;11.738;2023-03-17T04:43:10;96336.00;;;-1.74;100.00
48041;BME280;33815;48.386;11.738;2023-03-17T04:45:35;96314.78;;;-1.92;100.00
48041;BME280;33815;48.386;11.738;2023-03-17T04:48:01;96332.75;;;-1.93;100.00
48041;BME280;33815;48.386;11.738;2023-03-17T04:50:26;96335.94;;;-1.90;100.00
48041;BME280;33815;48.386;11.738;2023-03-17T04:52:51;96344.66;;;-1.94;100.00
48041;BME280;33815;48.386;11.738;2023-03-17T04:55:16;96345.44;;;-1.92;100.00
48041;BME280;33815;48.386;11.738;2023-03-17T04:57:42;96333.28;;;-2.04;100.00
48041;BME280;33815;48.386;11.738;2023-03-17T05:00:09;96332.91;;;-1.96;100.00
48041;BME280;33815;48.386;11.738;2023-03-17T05:02:36;96323.06;;;-2.04;100.00
48041;BME280;33815;48.386;11.738;2023-03-17T05:05:03;96321.34;;;-2.03;100.00
48041;BME280;33815;48.386;11.738;2023-03-17T05:07:28;96335.38;;;-1.95;100.00
48041;BME280;33815;48.386;11.738;2023-03-17T05:09:54;96327.88;;;-1.98;100.00
48041;BME280;33815;48.386;11.738;2023-03-17T05:12:21;96307.91;;;-2.07;100.00
48041;BME280;33815;48.386;11.738;2023-03-17T05:14:46;96315.81;;;-2.12;100.00
48041;BME280;33815;48.386;11.738;2023-03-17T05:17:11;96316.03;;;-2.16;100.00
48041;BME280;33815;48.386;11.738;2023-03-17T05:19:36;96322.19;;;-2.03;100.00
48041;BME280;33815;48.386;11.738;2023-03-17T05:22:02;96306.94;;;-2.04;100.00
48041;BME280;33815;48.386;11.738;2023-03-17T05:24:27;96308.06;;;-2.10;100.00
48041;BME280;33815;48.386;11.738;2023-03-17T05:26:52;96313.66;;;-2.03;100.00
48041;BME280;33815;48.386;11.738;2023-03-17T05:29:17;96328.44;;;-1.93;100.00
48041;BME280;33815;48.386;11.738;2023-03-17T05:31:43;96334.34;;;-1.75;100.00
48041;BME280;33815;48.386;11.738;2023-03-17T05:34:08;96326.16;;;-1.81;100.00
48041;BME280;33815;48.386;11.738;2023-03-17T05:36:34;96322.03;;;-1.84;100.00
48041;BME280;33815;48.386;11.738;2023-03-17T05:39:00;96332.75;;;-1.77;100.00
48041;BME280;33815;48.386;11.738;2023-03-17T05:41:26;96317.75;;;-1.83;100.00
48041;BME280;33815;48.386;11.738;2023-03-17T05:43:52;96333.09;;;-1.67;100.00
48041;BME280;33815;48.386;11.738;2023-03-17T05:46:17;96309.94;;;-1.64;100.00
48041;BME280;33815;48.386;11.738;2023-03-17T05:48:42;96320.09;;;-1.47;100.00
48041;BME280;33815;48.386;11.738;2023-03-17T05:51:08;96308.81;;;-1.43;100.00
48041;BME280;33815;48.386;11.738;2023-03-17T05:53:34;96316.72;;;-1.31;100.00
48041;BME280;33815;48.386;11.738;2023-03-17T05:56:00;96318.69;;;-1.21;100.00
48041;BME280;33815;48.386;11.738;2023-03-17T05:58:25;96319.81;;;-1.10;100.00
48041;BME280;33815;48.386;11.738;2023-03-17T06:00:51;96320.44;;;-0.91;100.00
48041;BME280;33815;48.386;11.738;2023-03-17T06:03:16;96325.97;;;-0.82;100.00
48041;BME280;33815;48.386;11.738;2023-03-17T06:05:41;96326.78;;;-0.82;100.00
48041;BME280;33815;48.386;11.738;2023-03-17T06:08:07;96309.69;;;-0.81;100.00
48041;BME280;33815;48.386;11.738;2023-03-17T06:10:32;96312.22;;;-0.51;98.33
48041;BME280;33815;48.386;11.738;2023-03-17T06:12:57;96319.72;;;-0.48;99.14
48041;BME280;33815;48.386;11.738;2023-03-17T06:15:23;96323.50;;;-0.39;99.61
48041;BME280;33815;48.386;11.738;2023-03-17T06:17:49;96303.09;;;-0.41;98.41
48041;BME280;33815;48.386;11.738;2023-03-17T06:20:15;96319.88;;;-0.35;97.84
48041;BME280;33815;48.386;11.738;2023-03-17T06:22:40;96328.47;;;-0.22;97.88
48041;BME280;33815;48.386;11.738;2023-03-17T06:25:07;96317.38;;;-0.37;99.04
48041;BME280;33815;48.386;11.738;2023-03-17T06:27:34;96329.13;;;-0.18;97.74
48041;BME280;33815;48.386;11.738;2023-03-17T06:29:59;96326.28;;;-0.28;97.70
48041;BME280;33815;48.386;11.738;2023-03-17T06:32:25;96336.34;;;0.04;97.47
48041;BME280;33815;48.386;11.738;2023-03-17T06:34:51;96331.78;;;0.09;94.15
48041;BME280;33815;48.386;11.738;2023-03-17T06:37:18;96327.84;;;0.04;95.81
48041;BME280;33815;48.386;11.738;2023-03-17T06:39:43;96322.81;;;0.02;96.46
48041;BME280;33815;48.386;11.738;2023-03-17T06:42:09;96309.53;;;-0.05;96.24
48041;BME280;33815;48.386;11.738;2023-03-17T06:44:34;96324.38;;;0.05;96.99
48041;BME280;33815;48.386;11.738;2023-03-17T06:47:00;96322.53;;;0.07;95.23
48041;BME280;33815;48.386;11.738;2023-03-17T06:49:26;96335.91;;;0.12;95.66
48041;BME280;33815;48.386;11.738;2023-03-17T06:51:51;96329.97;;;0.11;95.46
48041;BME280;33815;48.386;11.738;2023-03-17T06:54:16;96325.75;;;0.10;96.46
48041;BME280;33815;48.386;11.738;2023-03-17T06:56:42;96319.13;;;0.21;95.98
48041;BME280;33815;48.386;11.738;2023-03-17T06:59:09;96323.06;;;0.41;95.59
48041;BME280;33815;48.386;11.738;2023-03-17T07:01:35;96310.97;;;0.43;95.77
48041;BME280;33815;48.386;11.738;2023-03-17T07:04:01;96307.84;;;0.52;93.30
48041;BME280;33815;48.386;11.738;2023-03-17T07:06:26;96303.38;;;0.68;92.89
48041;BME280;33815;48.386;11.738;2023-03-17T07:08:52;96318.13;;;0.79;94.40
48041;BME280;33815;48.386;11.738;2023-03-17T07:11:17;96307.69;;;1.23;90.52
48041;BME280;33815;48.386;11.738;2023-03-17T07:13:43;96317.16;;;1.22;91.81
48041;BME280;33815;48.386;11.738;2023-03-17T07:16:10;96316.78;;;1.54;89.55
48041;BME280;33815;48.386;11.738;2023-03-17T07:18:36;96311.25;;;1.86;88.13
48041;BME280;33815;48.386;11.738;2023-03-17T07:21:02;96295.03;;;1.85;85.67
48041;BME280;33815;48.386;11.738;2023-03-17T07:23:27;96305.91;;;2.15;85.75
48041;BME280;33815;48.386;11.738;2023-03-17T07:25:53;96316.09;;;2.16;86.28
48041;BME280;33815;48.386;11.738;2023-03-17T07:28:18;96312.00;;;2.51;84.30
48041;BME280;33815;48.386;11.738;2023-03-17T07:30:47;96309.06;;;2.68;81.64
48041;BME280;33815;48.386;11.738;2023-03-17T07:33:13;96309.19;;;2.67;80.97
48041;BME280;33815;48.386;11.738;2023-03-17T07:35:38;96306.44;;;2.57;81.85
48041;BME280;33815;48.386;11.738;2023-03-17T07:38:04;96316.13;;;2.78;81.77
48041;BME280;33815;48.386;11.738;2023-03-17T07:40:29;96310.91;;;2.79;81.85
48041;BME280;33815;48.386;11.738;2023-03-17T07:42:55;96305.81;;;2.90;85.21
48041;BME280;33815;48.386;11.738;2023-03-17T07:45:20;96306.53;;;3.28;80.22
48041;BME280;33815;48.386;11.738;2023-03-17T07:47:45;96314.16;;;3.30;81.92
48041;BME280;33815;48.386;11.738;2023-03-17T07:50:11;96311.38;;;3.33;79.26
48041;BME280;33815;48.386;11.738;2023-03-17T07:52:36;96318.13;;;3.34;79.35
48041;BME280;33815;48.386;11.738;2023-03-17T07:55:03;96304.75;;;3.64;80.43
48041;BME280;33815;48.386;11.738;2023-03-17T07:57:28;96314.56;;;3.94;75.50
48041;BME280;33815;48.386;11.738;2023-03-17T07:59:53;96319.56;;;3.85;74.36
48041;BME280;33815;48.386;11.738;2023-03-17T08:02:20;96326.03;;;4.02;76.61
48041;BME280;33815;48.386;11.738;2023-03-17T08:04:46;96316.66;;;4.12;76.33
48041;BME280;33815;48.386;11.738;2023-03-17T08:07:11;96316.78;;;4.10;74.87
48041;BME280;33815;48.386;11.738;2023-03-17T08:09:37;96306.00;;;4.39;77.21
48041;BME280;33815;48.386;11.738;2023-03-17T08:12:03;96309.59;;;4.71;76.54
48041;BME280;33815;48.386;11.738;2023-03-17T08:14:29;96286.09;;;4.74;72.24
48041;BME280;33815;48.386;11.738;2023-03-17T08:16:54;96297.72;;;4.68;72.14
48041;BME280;33815;48.386;11.738;2023-03-17T08:19:20;96291.19;;;4.96;76.67
48041;BME280;33815;48.386;11.738;2023-03-17T08:21:46;96293.94;;;5.27;74.89
48041;BME280;33815;48.386;11.738;2023-03-17T08:24:11;96288.25;;;5.55;72.50
48041;BME280;33815;48.386;11.738;2023-03-17T08:26:37;96292.28;;;5.90;69.67
48041;BME280;33815;48.386;11.738;2023-03-17T08:29:02;96282.50;;;5.93;68.58
48041;BME280;33815;48.386;11.738;2023-03-17T08:31:29;96288.66;;;6.23;69.72
48041;BME280;33815;48.386;11.738;2023-03-17T08:33:55;96287.25;;;6.50;71.23
48041;BME280;33815;48.386;11.738;2023-03-17T08:36:21;96278.19;;;6.95;66.48
48041;BME280;33815;48.386;11.738;2023-03-17T08:38:48;96266.59;;;7.38;61.88
48041;BME280;33815;48.386;11.738;2023-03-17T08:41:16;96265.75;;;7.47;62.47
48041;BME280;33815;48.386;11.738;2023-03-17T08:43:42;96276.41;;;7.64;63.92
48041;BME280;33815;48.386;11.738;2023-03-17T08:46:13;96267.91;;;7.81;63.22
48041;BME280;33815;48.386;11.738;2023-03-17T08:48:41;96258.75;;;8.15;59.67
48041;BME280;33815;48.386;11.738;2023-03-17T08:51:07;96264.00;;;8.33;60.48
48041;BME280;33815;48.386;11.738;2023-03-17T08:53:33;96259.22;;;8.38;58.68
48041;BME280;33815;48.386;11.738;2023-03-17T08:55:59;96259.94;;;8.58;59.24
48041;BME280;33815;48.386;11.738;2023-03-17T08:58:25;96263.56;;;8.93;57.72
48041;BME280;33815;48.386;11.738;2023-03-17T09:00:51;96254.97;;;8.93;59.22
48041;BME280;33815;48.386;11.738;2023-03-17T09:03:17;96271.34;;;9.47;58.03
48041;BME280;33815;48.386;11.738;2023-03-17T09:05:42;96275.13;;;9.53;53.90
48041;BME280;33815;48.386;11.738;2023-03-17T09:08:09;96262.19;;;9.61;53.64
48041;BME280;33815;48.386;11.738;2023-03-17T09:10:36;96272.84;;;9.76;56.09
48041;BME280;33815;48.386;11.738;2023-03-17T09:13:02;96264.72;;;10.05;54.84
48041;BME280;33815;48.386;11.738;2023-03-17T09:15:31;96273.25;;;10.16;54.20
48041;BME280;33815;48.386;11.738;2023-03-17T09:17:57;96263.28;;;10.11;51.62
48041;BME280;33815;48.386;11.738;2023-03-17T09:20:22;96272.00;;;10.28;56.25
48041;BME280;33815;48.386;11.738;2023-03-17T09:22:48;96250.16;;;10.21;50.56
48041;BME280;33815;48.386;11.738;2023-03-17T09:25:14;96253.34;;;10.92;52.72
48041;BME280;33815;48.386;11.738;2023-03-17T09:27:40;96251.59;;;11.34;52.51
48041;BME280;33815;48.386;11.738;2023-03-17T09:30:06;96252.22;;;11.77;52.92
48041;BME280;33815;48.386;11.738;2023-03-17T09:32:33;96226.56;;;12.05;48.62
48041;BME280;33815;48.386;11.738;2023-03-17T09:34:58;96239.63;;;11.89;50.22
48041;BME280;33815;48.386;11.738;2023-03-17T09:37:24;96225.56;;;12.06;48.20
48041;BME280;33815;48.386;11.738;2023-03-17T09:39:50;96230.66;;;11.91;47.95
48041;BME280;33815;48.386;11.738;2023-03-17T09:44:58;96226.44;;;12.38;47.31
48041;BME280;33815;48.386;11.738;2023-03-17T09:47:56;96221.00;;;12.48;48.02
48041;BME280;33815;48.386;11.738;2023-03-17T09:50:27;96211.03;;;12.51;48.30
48041;BME280;33815;48.386;11.738;2023-03-17T09:52:56;96192.22;;;13.02;46.97
48041;BME280;33815;48.386;11.738;2023-03-17T09:55:28;96199.09;;;13.03;46.87
48041;BME280;33815;48.386;11.738;2023-03-17T09:57:55;96188.63;;;12.80;46.22
48041;BME280;33815;48.386;11.738;2023-03-17T10:00:23;96192.56;;;12.76;45.44
48041;BME280;33815;48.386;11.738;2023-03-17T10:02:52;96185.78;;;12.67;48.33
48041;BME280;33815;48.386;11.738;2023-03-17T10:05:26;96172.81;;;12.97;47.52
48041;BME280;33815;48.386;11.738;2023-03-17T10:08:21;96173.63;;;13.20;47.06
48041;BME280;33815;48.386;11.738;2023-03-17T10:11:11;96186.59;;;12.91;46.36
48041;BME280;33815;48.386;11.738;2023-03-17T10:13:56;96176.66;;;13.09;46.06
48041;BME280;33815;48.386;11.738;2023-03-17T10:16:33;96184.75;;;12.45;44.98
48041;BME280;33815;48.386;11.738;2023-03-17T10:19:05;96176.25;;;12.74;46.50
48041;BME280;33815;48.386;11.738;2023-03-17T10:21:37;96190.22;;;13.28;47.40
48041;BME280;33815;48.386;11.738;2023-03-17T10:24:05;96176.69;;;13.77;45.13
48041;BME280;33815;48.386;11.738;2023-03-17T10:26:45;96149.16;;;14.11;44.45
48041;BME280;33815;48.386;11.738;2023-03-17T10:29:16;96157.25;;;14.68;42.99
48041;BME280;33815;48.386;11.738;2023-03-17T10:31:42;96161.03;;;14.29;42.10
48041;BME280;33815;48.386;11.738;2023-03-17T10:34:15;96156.28;;;14.02;42.39
48041;BME280;33815;48.386;11.738;2023-03-17T10:36:49;96158.47;;;13.99;42.84
48041;BME280;33815;48.386;11.738;2023-03-17T10:39:21;96168.38;;;14.03;46.11
48041;BME280;33815;48.386;11.738;2023-03-17T10:41:54;96163.94;;;14.34;42.78
48041;BME280;33815;48.386;11.738;2023-03-17T10:44:42;96156.53;;;14.22;43.17
48041;BME280;33815;48.386;11.738;2023-03-17T10:47:31;96154.91;;;14.21;44.32
48041;BME280;33815;48.386;11.738;2023-03-17T10:50:02;96166.94;;;14.31;43.85
48041;BME280;33815;48.386;11.738;2023-03-17T10:52:31;96172.63;;;14.71;44.63
48041;BME280;33815;48.386;11.738;2023-03-17T10:55:04;96155.34;;;14.98;42.48
48041;BME280;33815;48.386;11.738;2023-03-17T10:57:30;96156.38;;;14.82;42.62
48041;BME280;33815;48.386;11.738;2023-03-17T10:59:58;96130.84;;;14.91;40.72
48041;BME280;33815;48.386;11.738;2023-03-17T11:02:28;96145.19;;;14.95;42.32
48041;BME280;33815;48.386;11.738;2023-03-17T11:05:18;96144.78;;;14.92;42.16
48041;BME280;33815;48.386;11.738;2023-03-17T11:07:44;96135.47;;;14.89;42.57
48041;BME280;33815;48.386;11.738;2023-03-17T11:10:25;96140.13;;;14.94;45.07
48041;BME280;33815;48.386;11.738;2023-03-17T11:12:56;96137.03;;;15.33;43.62
48041;BME280;33815;48.386;11.738;2023-03-17T11:15:28;96127.84;;;15.51;42.68
48041;BME280;33815;48.386;11.738;2023-03-17T11:18:26;96128.09;;;15.84;42.03
48041;BME280;33815;48.386;11.738;2023-03-17T11:20:56;96113.59;;;16.02;42.75
48041;BME280;33815;48.386;11.738;2023-03-17T11:23:49;96116.22;;;15.67;40.32
48041;BME280;33815;48.386;11.738;2023-03-17T11:26:43;96110.75;;;15.62;41.21
48041;BME280;33815;48.386;11.738;2023-03-17T11:29:32;96109.03;;;15.75;41.20
48041;BME280;33815;48.386;11.738;2023-03-17T11:32:19;96110.97;;;15.67;41.63
48041;BME280;33815;48.386;11.738;2023-03-17T11:35:02;96096.50;;;15.42;42.14
48041;BME280;33815;48.386;11.738;2023-03-17T11:40:34;96093.44;;;16.16;41.31
48041;BME280;33815;48.386;11.738;2023-03-17T11:43:27;96092.56;;;15.60;40.04
48041;BME280;33815;48.386;11.738;2023-03-17T11:46:08;96090.50;;;15.90;39.76
48041;BME280;33815;48.386;11.738;2023-03-17T11:51:51;96092.94;;;15.92;40.46
48041;BME280;33815;48.386;11.738;2023-03-17T11:57:27;96085.41;;;16.31;41.02
48041;BME280;33815;48.386;11.738;2023-03-17T11:59:57;96086.19;;;16.24;39.42
48041;BME280;33815;48.386;11.738;2023-03-17T12:02:31;96085.06;;;16.74;40.24
48041;BME280;33815;48.386;11.738;2023-03-17T12:05:14;96082.47;;;17.07;38.01
48041;BME280;33815;48.386;11.738;2023-03-17T12:08:13;96066.06;;;16.99;36.67
48041;BME280;33815;48.386;11.738;2023-03-17T12:10:45;96067.28;;;17.03;39.31
48041;BME280;33815;48.386;11.738;2023-03-17T12:13:27;96062.59;;;17.18;39.00
48041;BME280;33815;48.386;11.738;2023-03-17T12:16:01;96046.00;;;17.24;36.25
48041;BME280;33815;48.386;11.738;2023-03-17T12:18:36;96048.25;;;17.01;37.86
48041;BME280;33815;48.386;11.738;2023-03-17T12:21:19;96058.38;;;17.17;40.01
48041;BME280;33815;48.386;11.738;2023-03-17T12:23:57;96038.59;;;17.60;39.31
48041;BME280;33815;48.386;11.738;2023-03-17T12:26:35;96039.97;;;17.76;37.60
48041;BME280;33815;48.386;11.738;2023-03-17T12:29:11;96023.38;;;17.69;36.94
48041;BME280;33815;48.386;11.738;2023-03-17T12:31:44;96030.47;;;18.20;35.49
48041;BME280;33815;48.386;11.738;2023-03-17T12:34:17;96028.19;;;17.78;35.01
48041;BME280;33815;48.386;11.738;2023-03-17T12:36:44;96029.31;;;17.51;37.31
48041;BME280;33815;48.386;11.738;2023-03-17T12:39:13;96030.13;;;17.51;38.30
48041;BME280;33815;48.386;11.738;2023-03-17T12:41:53;96033.63;;;17.90;35.88
48041;BME280;33815;48.386;11.738;2023-03-17T12:47:30;95999.06;;;18.12;35.43
48041;BME280;33815;48.386;11.738;2023-03-17T12:50:15;96001.34;;;18.02;36.25
48041;BME280;33815;48.386;11.738;2023-03-17T12:53:03;96010.44;;;17.60;37.84
48041;BME280;33815;48.386;11.738;2023-03-17T12:55:35;96003.66;;;17.91;38.08
48041;BME280;33815;48.386;11.738;2023-03-17T12:58:16;96011.28;;;18.00;38.29
48041;BME280;33815;48.386;11.738;2023-03-17T13:01:04;95999.19;;;18.24;36.63
48041;BME280;33815;48.386;11.738;2023-03-17T13:03:31;95997.47;;;18.11;37.93
48041;BME280;33815;48.386;11.738;2023-03-17T13:05:59;95999.38;;;18.54;36.06
48041;BME280;33815;48.386;11.738;2023-03-17T13:08:40;95991.06;;;18.57;35.34
48041;BME280;33815;48.386;11.738;2023-03-17T13:11:20;95997.72;;;18.60;36.86
48041;BME280;33815;48.386;11.738;2023-03-17T13:16:33;95983.06;;;18.39;36.31